Airfield :







YOU CAN JOIN US ON...

 
LOGIN :

Register | Disclaimer

   EN    FR    IT 

 









Legend :    VFR   Marginal VFR   IFR   Intensive IFR   Very Intensive IFR
Visi :
Ceiling :
>= 8 km
>= 3000ft
5 to 8 km
1000 to 3000 ft
1500m to 5 km
500 to 1000 ft
800 to 1500m
200 to 500 ft
< 800m
< 200 ft
Symbols :   Thunderstorms  Fog  Heavy snow  Heavy precipitations  Wind > 20 kt






- Airport Elevation : 92 ft
- IATA code : YZX


CYZX - CFB Greenwood

CURRENT METAR :
  • 071200Z 31007KT 15SM FEW040 FEW250 M04/M09 A3004 RMK SC1CC1 SLP174

EXPIRED METARs :
  • 071100Z 31006KT 15SM FEW045 FEW075 M03/M09 A3002 RMK SC1AC1 SLP166
  • 071000Z 32007KT 15SM SCT045 BKN075 M03/M09 A2999 RMK SC3AC2 SLP157

TAF TAF CYZX
Valid from the 07 at 12:00 until the 08 at 12:00 UTC


071130Z 0712/0812 32010KT P6SM FEW040
FM071400 31012G22KT P6SM SCT030
BECMG 0720/0722 29007KT
FM080400 29007KT P6SM BKN025
FM080600 29007KT 5SM -SHSN BKN020 RMK NXT FCST BY 071800Z



MET'MAP, your aeronautical weather chart ! - Copyright ORBIFLY December 2007 - Disclaimer

ORBIFLY MET'MAP TEAM :

Programming & Development : Alexandra Zaïnal
Concept & original design : Baudouin d'Aumeries
Assistance for programming : Marc-Olivier Méhu
Technical & hardware support : Manuel Goepfert

Contact : metmap@orbifly.com




SOURCES & CREDITS :

   NOAA